sensor_id;sensor_type;location;lat;lon;timestamp;P1;durP1;ratioP1;P2;durP2;ratioP2
35743;SDS011;21867;52.012;4.324;2023-07-02T00:00:28;6.73;;;3.53;;
35743;SDS011;21867;52.012;4.324;2023-07-02T00:02:55;8.50;;;4.87;;
35743;SDS011;21867;52.012;4.324;2023-07-02T00:05:23;14.33;;;6.57;;
35743;SDS011;21867;52.012;4.324;2023-07-02T00:07:52;13.77;;;5.70;;
35743;SDS011;21867;52.012;4.324;2023-07-02T00:10:20;12.70;;;5.77;;
35743;SDS011;21867;52.012;4.324;2023-07-02T00:12:47;12.90;;;6.20;;
35743;SDS011;21867;52.012;4.324;2023-07-02T00:15:16;15.00;;;7.27;;
35743;SDS011;21867;52.012;4.324;2023-07-02T00:17:49;13.50;;;6.57;;
35743;SDS011;21867;52.012;4.324;2023-07-02T00:20:16;11.93;;;6.77;;
35743;SDS011;21867;52.012;4.324;2023-07-02T00:22:44;19.03;;;6.37;;
35743;SDS011;21867;52.012;4.324;2023-07-02T00:25:13;11.33;;;5.70;;
35743;SDS011;21867;52.012;4.324;2023-07-02T00:27:41;16.07;;;6.70;;
35743;SDS011;21867;52.012;4.324;2023-07-02T00:30:08;14.47;;;7.33;;
35743;SDS011;21867;52.012;4.324;2023-07-02T00:32:41;15.63;;;7.40;;
35743;SDS011;21867;52.012;4.324;2023-07-02T00:35:10;14.37;;;6.60;;
35743;SDS011;21867;52.012;4.324;2023-07-02T00:37:37;16.83;;;7.20;;
35743;SDS011;21867;52.012;4.324;2023-07-02T00:40:05;17.17;;;7.70;;
35743;SDS011;21867;52.012;4.324;2023-07-02T00:48:12;16.83;;;8.10;;
35743;SDS011;21867;52.012;4.324;2023-07-02T00:50:40;14.03;;;7.50;;
35743;SDS011;21867;52.012;4.324;2023-07-02T00:53:08;14.40;;;6.77;;
35743;SDS011;21867;52.012;4.324;2023-07-02T00:55:36;19.37;;;7.83;;
35743;SDS011;21867;52.012;4.324;2023-07-02T00:58:03;14.37;;;7.47;;
35743;SDS011;21867;52.012;4.324;2023-07-02T01:00:31;17.47;;;7.50;;
35743;SDS011;21867;52.012;4.324;2023-07-02T01:02:58;11.63;;;5.30;;
35743;SDS011;21867;52.012;4.324;2023-07-02T01:05:27;10.90;;;4.83;;
35743;SDS011;21867;52.012;4.324;2023-07-02T01:07:55;17.70;;;6.47;;
35743;SDS011;21867;52.012;4.324;2023-07-02T01:10:22;12.47;;;6.77;;
35743;SDS011;21867;52.012;4.324;2023-07-02T01:12:51;15.77;;;7.37;;
35743;SDS011;21867;52.012;4.324;2023-07-02T01:15:19;12.07;;;6.70;;
35743;SDS011;21867;52.012;4.324;2023-07-02T01:17:46;16.33;;;6.73;;
35743;SDS011;21867;52.012;4.324;2023-07-02T01:20:15;17.57;;;7.97;;
35743;SDS011;21867;52.012;4.324;2023-07-02T01:22:42;18.83;;;7.43;;
35743;SDS011;21867;52.012;4.324;2023-07-02T01:25:09;16.53;;;7.00;;
35743;SDS011;21867;52.012;4.324;2023-07-02T01:27:37;15.23;;;6.00;;
35743;SDS011;21867;52.012;4.324;2023-07-02T01:30:06;14.30;;;6.80;;
35743;SDS011;21867;52.012;4.324;2023-07-02T01:32:40;16.13;;;7.20;;
35743;SDS011;21867;52.012;4.324;2023-07-02T01:35:07;12.67;;;6.73;;
35743;SDS011;21867;52.012;4.324;2023-07-02T01:37:37;14.30;;;7.27;;
35743;SDS011;21867;52.012;4.324;2023-07-02T01:40:05;15.20;;;6.97;;
35743;SDS011;21867;52.012;4.324;2023-07-02T01:48:32;9.37;;;5.07;;
35743;SDS011;21867;52.012;4.324;2023-07-02T01:51:00;12.80;;;5.53;;
35743;SDS011;21867;52.012;4.324;2023-07-02T01:53:29;17.07;;;7.33;;
35743;SDS011;21867;52.012;4.324;2023-07-02T01:55:56;14.97;;;6.67;;
35743;SDS011;21867;52.012;4.324;2023-07-02T01:58:23;13.67;;;6.67;;
35743;SDS011;21867;52.012;4.324;2023-07-02T02:00:51;16.63;;;6.50;;
35743;SDS011;21867;52.012;4.324;2023-07-02T02:03:18;16.93;;;7.70;;
35743;SDS011;21867;52.012;4.324;2023-07-02T02:05:46;12.37;;;6.07;;
35743;SDS011;21867;52.012;4.324;2023-07-02T02:08:14;14.60;;;6.43;;
35743;SDS011;21867;52.012;4.324;2023-07-02T02:10:43;15.47;;;7.43;;
35743;SDS011;21867;52.012;4.324;2023-07-02T02:13:11;15.60;;;7.37;;
35743;SDS011;21867;52.012;4.324;2023-07-02T02:15:40;16.97;;;7.47;;
35743;SDS011;21867;52.012;4.324;2023-07-02T02:18:07;14.57;;;8.00;;
35743;SDS011;21867;52.012;4.324;2023-07-02T02:20:34;14.23;;;6.97;;
35743;SDS011;21867;52.012;4.324;2023-07-02T02:23:02;17.43;;;6.77;;
35743;SDS011;21867;52.012;4.324;2023-07-02T02:25:30;14.57;;;6.27;;
35743;SDS011;21867;52.012;4.324;2023-07-02T02:28:01;12.90;;;6.17;;
35743;SDS011;21867;52.012;4.324;2023-07-02T02:30:28;19.43;;;8.17;;
35743;SDS011;21867;52.012;4.324;2023-07-02T02:32:56;25.00;;;9.57;;
35743;SDS011;21867;52.012;4.324;2023-07-02T02:35:26;19.27;;;7.83;;
35743;SDS011;21867;52.012;4.324;2023-07-02T02:37:53;17.80;;;8.03;;
35743;SDS011;21867;52.012;4.324;2023-07-02T02:40:21;19.03;;;8.27;;
35743;SDS011;21867;52.012;4.324;2023-07-02T02:42:48;24.13;;;8.77;;
35743;SDS011;21867;52.012;4.324;2023-07-02T02:45:20;15.43;;;6.77;;
35743;SDS011;21867;52.012;4.324;2023-07-02T02:48:36;15.40;;;7.20;;
35743;SDS011;21867;52.012;4.324;2023-07-02T02:51:04;18.57;;;7.90;;
35743;SDS011;21867;52.012;4.324;2023-07-02T02:53:32;21.27;;;7.43;;
35743;SDS011;21867;52.012;4.324;2023-07-02T02:55:59;19.60;;;8.03;;
35743;SDS011;21867;52.012;4.324;2023-07-02T02:58:26;13.73;;;6.43;;
35743;SDS011;21867;52.012;4.324;2023-07-02T03:01:05;17.47;;;5.60;;
35743;SDS011;21867;52.012;4.324;2023-07-02T03:03:32;17.93;;;7.10;;
35743;SDS011;21867;52.012;4.324;2023-07-02T03:05:59;19.27;;;8.07;;
35743;SDS011;21867;52.012;4.324;2023-07-02T03:08:27;16.93;;;7.27;;
35743;SDS011;21867;52.012;4.324;2023-07-02T03:11:00;16.87;;;7.53;;
35743;SDS011;21867;52.012;4.324;2023-07-02T03:13:39;15.03;;;6.57;;
35743;SDS011;21867;52.012;4.324;2023-07-02T03:16:14;18.27;;;8.40;;
35743;SDS011;21867;52.012;4.324;2023-07-02T03:18:41;14.27;;;6.27;;
35743;SDS011;21867;52.012;4.324;2023-07-02T03:21:09;17.37;;;7.67;;
35743;SDS011;21867;52.012;4.324;2023-07-02T03:23:36;23.90;;;8.47;;
35743;SDS011;21867;52.012;4.324;2023-07-02T03:26:04;16.97;;;6.73;;
35743;SDS011;21867;52.012;4.324;2023-07-02T03:28:31;11.03;;;6.27;;
35743;SDS011;21867;52.012;4.324;2023-07-02T03:31:01;17.83;;;6.53;;
35743;SDS011;21867;52.012;4.324;2023-07-02T03:33:31;17.97;;;7.77;;
35743;SDS011;21867;52.012;4.324;2023-07-02T03:35:59;14.20;;;6.73;;
35743;SDS011;21867;52.012;4.324;2023-07-02T03:38:26;16.03;;;6.77;;
35743;SDS011;21867;52.012;4.324;2023-07-02T03:40:54;13.87;;;6.73;;
35743;SDS011;21867;52.012;4.324;2023-07-02T03:43:25;16.63;;;6.73;;
35743;SDS011;21867;52.012;4.324;2023-07-02T03:45:53;15.90;;;6.03;;
35743;SDS011;21867;52.012;4.324;2023-07-02T03:48:20;13.33;;;6.63;;
35743;SDS011;21867;52.012;4.324;2023-07-02T03:50:49;21.87;;;7.10;;
35743;SDS011;21867;52.012;4.324;2023-07-02T03:53:16;11.70;;;6.53;;
35743;SDS011;21867;52.012;4.324;2023-07-02T03:55:44;13.63;;;6.47;;
35743;SDS011;21867;52.012;4.324;2023-07-02T03:58:11;16.77;;;7.40;;
35743;SDS011;21867;52.012;4.324;2023-07-02T04:03:20;9.33;;;5.13;;
35743;SDS011;21867;52.012;4.324;2023-07-02T04:05:49;20.07;;;8.20;;
35743;SDS011;21867;52.012;4.324;2023-07-02T04:08:16;14.03;;;6.73;;
35743;SDS011;21867;52.012;4.324;2023-07-02T04:10:44;13.03;;;5.70;;
35743;SDS011;21867;52.012;4.324;2023-07-02T04:13:11;15.63;;;5.63;;
35743;SDS011;21867;52.012;4.324;2023-07-02T04:15:48;14.37;;;6.00;;
35743;SDS011;21867;52.012;4.324;2023-07-02T04:21:52;10.37;;;5.50;;
35743;SDS011;21867;52.012;4.324;2023-07-02T04:24:19;12.27;;;4.67;;
35743;SDS011;21867;52.012;4.324;2023-07-02T04:26:47;11.33;;;6.43;;
35743;SDS011;21867;52.012;4.324;2023-07-02T04:29:34;15.13;;;6.20;;
35743;SDS011;21867;52.012;4.324;2023-07-02T04:32:01;14.37;;;6.33;;
35743;SDS011;21867;52.012;4.324;2023-07-02T04:34:29;12.87;;;5.93;;
35743;SDS011;21867;52.012;4.324;2023-07-02T04:36:58;11.07;;;5.07;;
35743;SDS011;21867;52.012;4.324;2023-07-02T04:39:25;14.47;;;6.43;;
35743;SDS011;21867;52.012;4.324;2023-07-02T04:41:52;14.07;;;6.57;;
35743;SDS011;21867;52.012;4.324;2023-07-02T04:44:20;11.90;;;5.60;;
35743;SDS011;21867;52.012;4.324;2023-07-02T04:46:47;14.60;;;6.17;;
35743;SDS011;21867;52.012;4.324;2023-07-02T04:49:15;14.17;;;6.53;;
35743;SDS011;21867;52.012;4.324;2023-07-02T04:51:46;11.03;;;5.20;;
35743;SDS011;21867;52.012;4.324;2023-07-02T04:54:30;10.93;;;5.50;;
35743;SDS011;21867;52.012;4.324;2023-07-02T04:57:01;15.80;;;6.23;;
35743;SDS011;21867;52.012;4.324;2023-07-02T04:59:28;13.87;;;5.60;;
35743;SDS011;21867;52.012;4.324;2023-07-02T05:01:55;13.93;;;6.00;;
35743;SDS011;21867;52.012;4.324;2023-07-02T05:04:23;9.60;;;5.57;;
35743;SDS011;21867;52.012;4.324;2023-07-02T05:06:50;15.07;;;6.70;;
35743;SDS011;21867;52.012;4.324;2023-07-02T05:11:57;12.43;;;5.67;;
35743;SDS011;21867;52.012;4.324;2023-07-02T05:14:25;11.73;;;5.53;;
35743;SDS011;21867;52.012;4.324;2023-07-02T05:16:52;11.23;;;4.87;;
35743;SDS011;21867;52.012;4.324;2023-07-02T05:19:20;17.87;;;6.87;;
35743;SDS011;21867;52.012;4.324;2023-07-02T05:21:47;18.67;;;7.53;;
35743;SDS011;21867;52.012;4.324;2023-07-02T05:24:14;8.90;;;5.20;;
35743;SDS011;21867;52.012;4.324;2023-07-02T05:26:42;12.90;;;7.27;;
35743;SDS011;21867;52.012;4.324;2023-07-02T05:29:11;14.13;;;6.37;;
35743;SDS011;21867;52.012;4.324;2023-07-02T05:31:38;8.30;;;4.37;;
35743;SDS011;21867;52.012;4.324;2023-07-02T05:34:05;13.13;;;5.87;;
35743;SDS011;21867;52.012;4.324;2023-07-02T05:36:33;15.93;;;7.27;;
35743;SDS011;21867;52.012;4.324;2023-07-02T05:39:00;11.67;;;5.60;;
35743;SDS011;21867;52.012;4.324;2023-07-02T05:41:27;10.00;;;5.07;;
35743;SDS011;21867;52.012;4.324;2023-07-02T05:43:55;19.00;;;6.10;;
35743;SDS011;21867;52.012;4.324;2023-07-02T05:46:23;11.13;;;4.60;;
35743;SDS011;21867;52.012;4.324;2023-07-02T05:48:51;13.00;;;6.20;;
35743;SDS011;21867;52.012;4.324;2023-07-02T05:51:19;11.00;;;4.70;;
35743;SDS011;21867;52.012;4.324;2023-07-02T05:53:47;10.73;;;5.47;;
35743;SDS011;21867;52.012;4.324;2023-07-02T05:56:15;12.47;;;6.03;;
35743;SDS011;21867;52.012;4.324;2023-07-02T05:58:42;15.73;;;6.00;;
35743;SDS011;21867;52.012;4.324;2023-07-02T06:01:13;14.43;;;6.27;;
35743;SDS011;21867;52.012;4.324;2023-07-02T06:03:42;15.33;;;6.03;;
35743;SDS011;21867;52.012;4.324;2023-07-02T06:06:10;16.27;;;6.50;;
35743;SDS011;21867;52.012;4.324;2023-07-02T06:08:38;11.43;;;4.57;;
35743;SDS011;21867;52.012;4.324;2023-07-02T06:11:06;13.93;;;4.70;;
35743;SDS011;21867;52.012;4.324;2023-07-02T06:13:33;12.60;;;5.33;;
35743;SDS011;21867;52.012;4.324;2023-07-02T06:16:00;12.67;;;5.53;;
35743;SDS011;21867;52.012;4.324;2023-07-02T06:18:28;10.33;;;5.50;;
35743;SDS011;21867;52.012;4.324;2023-07-02T06:20:56;16.50;;;6.30;;
35743;SDS011;21867;52.012;4.324;2023-07-02T06:23:24;16.53;;;5.73;;
35743;SDS011;21867;52.012;4.324;2023-07-02T06:25:51;15.10;;;6.53;;
35743;SDS011;21867;52.012;4.324;2023-07-02T06:28:18;15.80;;;6.10;;
35743;SDS011;21867;52.012;4.324;2023-07-02T06:30:46;12.87;;;5.70;;
35743;SDS011;21867;52.012;4.324;2023-07-02T06:33:14;9.77;;;5.07;;
35743;SDS011;21867;52.012;4.324;2023-07-02T06:35:41;17.70;;;5.47;;
35743;SDS011;21867;52.012;4.324;2023-07-02T06:38:10;15.33;;;5.17;;
35743;SDS011;21867;52.012;4.324;2023-07-02T06:40:37;12.20;;;5.93;;
35743;SDS011;21867;52.012;4.324;2023-07-02T06:43:04;13.03;;;5.77;;
35743;SDS011;21867;52.012;4.324;2023-07-02T06:45:32;14.73;;;6.30;;
35743;SDS011;21867;52.012;4.324;2023-07-02T06:47:59;10.23;;;4.47;;
35743;SDS011;21867;52.012;4.324;2023-07-02T06:50:29;14.20;;;6.33;;
35743;SDS011;21867;52.012;4.324;2023-07-02T06:52:57;14.40;;;6.83;;
35743;SDS011;21867;52.012;4.324;2023-07-02T06:55:26;10.03;;;4.50;;
35743;SDS011;21867;52.012;4.324;2023-07-02T06:57:53;13.23;;;6.17;;
35743;SDS011;21867;52.012;4.324;2023-07-02T07:00:21;11.47;;;5.40;;
35743;SDS011;21867;52.012;4.324;2023-07-02T07:02:48;15.33;;;6.03;;
35743;SDS011;21867;52.012;4.324;2023-07-02T07:05:15;10.33;;;4.87;;
35743;SDS011;21867;52.012;4.324;2023-07-02T07:07:43;16.60;;;5.95;;
35743;SDS011;21867;52.012;4.324;2023-07-02T07:10:10;11.03;;;5.27;;
35743;SDS011;21867;52.012;4.324;2023-07-02T07:12:39;11.20;;;5.70;;
35743;SDS011;21867;52.012;4.324;2023-07-02T07:15:07;11.47;;;5.37;;
35743;SDS011;21867;52.012;4.324;2023-07-02T07:17:34;7.77;;;3.80;;
35743;SDS011;21867;52.012;4.324;2023-07-02T07:20:01;12.83;;;5.03;;
35743;SDS011;21867;52.012;4.324;2023-07-02T07:22:29;12.27;;;6.93;;
35743;SDS011;21867;52.012;4.324;2023-07-02T07:24:56;13.23;;;4.43;;
35743;SDS011;21867;52.012;4.324;2023-07-02T07:27:23;14.27;;;5.70;;
35743;SDS011;21867;52.012;4.324;2023-07-02T07:29:52;10.93;;;5.23;;
35743;SDS011;21867;52.012;4.324;2023-07-02T07:32:20;15.50;;;6.27;;
35743;SDS011;21867;52.012;4.324;2023-07-02T07:34:47;9.53;;;4.67;;
35743;SDS011;21867;52.012;4.324;2023-07-02T07:37:14;11.47;;;4.77;;
35743;SDS011;21867;52.012;4.324;2023-07-02T07:39:42;13.83;;;5.47;;
35743;SDS011;21867;52.012;4.324;2023-07-02T07:42:09;11.27;;;6.07;;
35743;SDS011;21867;52.012;4.324;2023-07-02T07:44:36;8.10;;;3.87;;
35743;SDS011;21867;52.012;4.324;2023-07-02T07:47:05;8.03;;;4.53;;
35743;SDS011;21867;52.012;4.324;2023-07-02T07:49:32;10.17;;;5.27;;
35743;SDS011;21867;52.012;4.324;2023-07-02T07:52:00;13.57;;;5.20;;
35743;SDS011;21867;52.012;4.324;2023-07-02T07:54:27;16.90;;;5.40;;
35743;SDS011;21867;52.012;4.324;2023-07-02T07:56:54;12.93;;;4.80;;
35743;SDS011;21867;52.012;4.324;2023-07-02T07:59:22;10.60;;;4.77;;
35743;SDS011;21867;52.012;4.324;2023-07-02T08:01:49;11.87;;;5.33;;
35743;SDS011;21867;52.012;4.324;2023-07-02T08:04:18;15.07;;;5.17;;
35743;SDS011;21867;52.012;4.324;2023-07-02T08:06:46;12.70;;;4.73;;
35743;SDS011;21867;52.012;4.324;2023-07-02T08:09:13;13.00;;;4.60;;
35743;SDS011;21867;52.012;4.324;2023-07-02T08:11:40;8.90;;;4.63;;
35743;SDS011;21867;52.012;4.324;2023-07-02T08:14:08;10.60;;;4.10;;
35743;SDS011;21867;52.012;4.324;2023-07-02T08:16:35;9.37;;;4.63;;
35743;SDS011;21867;52.012;4.324;2023-07-02T08:19:02;13.27;;;4.73;;
35743;SDS011;21867;52.012;4.324;2023-07-02T08:21:31;10.80;;;5.00;;
35743;SDS011;21867;52.012;4.324;2023-07-02T08:23:58;12.83;;;5.30;;
35743;SDS011;21867;52.012;4.324;2023-07-02T08:26:26;12.47;;;5.73;;
35743;SDS011;21867;52.012;4.324;2023-07-02T08:28:53;13.33;;;5.90;;
35743;SDS011;21867;52.012;4.324;2023-07-02T08:31:21;15.97;;;5.83;;
35743;SDS011;21867;52.012;4.324;2023-07-02T08:33:49;11.97;;;4.93;;
35743;SDS011;21867;52.012;4.324;2023-07-02T08:36:16;9.10;;;4.27;;
35743;SDS011;21867;52.012;4.324;2023-07-02T08:38:45;15.60;;;5.63;;
35743;SDS011;21867;52.012;4.324;2023-07-02T08:41:12;12.37;;;5.00;;
35743;SDS011;21867;52.012;4.324;2023-07-02T08:43:40;7.30;;;3.87;;
35743;SDS011;21867;52.012;4.324;2023-07-02T08:46:07;8.70;;;4.33;;
35743;SDS011;21867;52.012;4.324;2023-07-02T08:48:35;13.30;;;4.70;;
35743;SDS011;21867;52.012;4.324;2023-07-02T08:51:03;9.60;;;4.80;;
35743;SDS011;21867;52.012;4.324;2023-07-02T08:53:31;13.00;;;5.83;;
35743;SDS011;21867;52.012;4.324;2023-07-02T08:56:01;9.13;;;4.87;;
35743;SDS011;21867;52.012;4.324;2023-07-02T08:58:29;11.33;;;4.60;;
35743;SDS011;21867;52.012;4.324;2023-07-02T09:01:06;15.47;;;4.73;;
35743;SDS011;21867;52.012;4.324;2023-07-02T09:03:34;8.47;;;4.33;;
35743;SDS011;21867;52.012;4.324;2023-07-02T09:06:01;9.17;;;4.77;;
35743;SDS011;21867;52.012;4.324;2023-07-02T09:08:29;8.07;;;4.43;;
35743;SDS011;21867;52.012;4.324;2023-07-02T09:11:06;11.87;;;5.07;;
35743;SDS011;21867;52.012;4.324;2023-07-02T09:13:46;9.73;;;4.73;;
35743;SDS011;21867;52.012;4.324;2023-07-02T09:16:23;11.63;;;4.67;;
35743;SDS011;21867;52.012;4.324;2023-07-02T09:18:58;13.83;;;4.97;;
35743;SDS011;21867;52.012;4.324;2023-07-02T09:21:26;8.30;;;3.97;;
35743;SDS011;21867;52.012;4.324;2023-07-02T09:23:54;8.73;;;3.70;;
35743;SDS011;21867;52.012;4.324;2023-07-02T09:26:23;9.63;;;4.47;;
35743;SDS011;21867;52.012;4.324;2023-07-02T09:28:59;10.10;;;4.03;;
35743;SDS011;21867;52.012;4.324;2023-07-02T09:31:27;12.17;;;4.33;;
35743;SDS011;21867;52.012;4.324;2023-07-02T09:34:04;10.83;;;4.60;;
35743;SDS011;21867;52.012;4.324;2023-07-02T09:36:31;12.03;;;4.23;;
35743;SDS011;21867;52.012;4.324;2023-07-02T09:39:05;7.03;;;3.17;;
35743;SDS011;21867;52.012;4.324;2023-07-02T09:41:34;9.07;;;4.47;;
35743;SDS011;21867;52.012;4.324;2023-07-02T09:44:01;6.67;;;2.90;;
35743;SDS011;21867;52.012;4.324;2023-07-02T09:46:29;8.03;;;3.37;;
35743;SDS011;21867;52.012;4.324;2023-07-02T09:48:57;6.33;;;3.17;;
35743;SDS011;21867;52.012;4.324;2023-07-02T09:51:25;8.50;;;4.25;;
35743;SDS011;21867;52.012;4.324;2023-07-02T09:53:52;9.57;;;4.13;;
35743;SDS011;21867;52.012;4.324;2023-07-02T09:56:20;8.03;;;3.47;;
35743;SDS011;21867;52.012;4.324;2023-07-02T09:58:48;8.60;;;3.63;;
35743;SDS011;21867;52.012;4.324;2023-07-02T10:01:16;10.97;;;4.53;;
35743;SDS011;21867;52.012;4.324;2023-07-02T10:03:43;10.00;;;4.10;;
35743;SDS011;21867;52.012;4.324;2023-07-02T10:06:11;6.57;;;3.63;;
35743;SDS011;21867;52.012;4.324;2023-07-02T10:08:38;6.20;;;3.07;;
35743;SDS011;21867;52.012;4.324;2023-07-02T10:11:07;6.00;;;3.20;;
35743;SDS011;21867;52.012;4.324;2023-07-02T10:13:35;7.70;;;3.73;;
35743;SDS011;21867;52.012;4.324;2023-07-02T10:16:04;7.60;;;3.90;;
35743;SDS011;21867;52.012;4.324;2023-07-02T10:18:34;10.23;;;3.67;;
35743;SDS011;21867;52.012;4.324;2023-07-02T10:21:12;6.63;;;3.10;;
35743;SDS011;21867;52.012;4.324;2023-07-02T10:23:40;6.80;;;3.90;;
35743;SDS011;21867;52.012;4.324;2023-07-02T10:26:10;8.67;;;4.53;;
35743;SDS011;21867;52.012;4.324;2023-07-02T10:28:38;9.90;;;4.60;;
35743;SDS011;21867;52.012;4.324;2023-07-02T10:31:10;10.30;;;4.03;;
35743;SDS011;21867;52.012;4.324;2023-07-02T10:33:44;8.33;;;3.83;;
35743;SDS011;21867;52.012;4.324;2023-07-02T10:36:17;10.47;;;4.47;;
35743;SDS011;21867;52.012;4.324;2023-07-02T10:38:45;12.87;;;4.27;;
35743;SDS011;21867;52.012;4.324;2023-07-02T10:41:12;6.27;;;3.83;;
35743;SDS011;21867;52.012;4.324;2023-07-02T10:43:49;8.37;;;4.07;;
35743;SDS011;21867;52.012;4.324;2023-07-02T10:46:21;8.27;;;4.13;;
35743;SDS011;21867;52.012;4.324;2023-07-02T10:48:52;7.43;;;3.87;;
35743;SDS011;21867;52.012;4.324;2023-07-02T10:51:22;8.40;;;3.90;;
35743;SDS011;21867;52.012;4.324;2023-07-02T10:53:56;6.80;;;3.80;;
35743;SDS011;21867;52.012;4.324;2023-07-02T10:56:24;11.33;;;5.07;;
35743;SDS011;21867;52.012;4.324;2023-07-02T10:58:51;12.20;;;4.97;;
35743;SDS011;21867;52.012;4.324;2023-07-02T11:01:24;10.30;;;5.17;;
35743;SDS011;21867;52.012;4.324;2023-07-02T11:03:55;9.93;;;4.70;;
35743;SDS011;21867;52.012;4.324;2023-07-02T11:06:23;10.30;;;4.70;;
35743;SDS011;21867;52.012;4.324;2023-07-02T11:11:59;9.50;;;4.80;;
35743;SDS011;21867;52.012;4.324;2023-07-02T11:14:27;10.33;;;4.67;;
35743;SDS011;21867;52.012;4.324;2023-07-02T11:16:56;6.17;;;3.37;;
35743;SDS011;21867;52.012;4.324;2023-07-02T11:19:23;8.33;;;5.10;;
35743;SDS011;21867;52.012;4.324;2023-07-02T11:21:51;9.17;;;4.73;;
35743;SDS011;21867;52.012;4.324;2023-07-02T11:24:26;10.83;;;5.37;;
35743;SDS011;21867;52.012;4.324;2023-07-02T11:26:53;11.13;;;5.10;;
35743;SDS011;21867;52.012;4.324;2023-07-02T11:29:21;8.60;;;5.40;;
35743;SDS011;21867;52.012;4.324;2023-07-02T11:31:48;6.30;;;4.00;;
35743;SDS011;21867;52.012;4.324;2023-07-02T11:34:17;7.90;;;4.83;;
35743;SDS011;21867;52.012;4.324;2023-07-02T11:36:47;6.37;;;4.97;;
35743;SDS011;21867;52.012;4.324;2023-07-02T11:39:15;9.53;;;5.37;;
35743;SDS011;21867;52.012;4.324;2023-07-02T11:41:43;10.60;;;5.53;;
35743;SDS011;21867;52.012;4.324;2023-07-02T11:44:11;7.80;;;4.87;;
35743;SDS011;21867;52.012;4.324;2023-07-02T11:46:38;7.13;;;4.50;;
35743;SDS011;21867;52.012;4.324;2023-07-02T11:49:11;7.77;;;4.80;;
35743;SDS011;21867;52.012;4.324;2023-07-02T11:51:55;11.60;;;5.40;;
35743;SDS011;21867;52.012;4.324;2023-07-02T11:54:22;9.73;;;4.77;;
35743;SDS011;21867;52.012;4.324;2023-07-02T11:56:49;7.83;;;5.30;;
35743;SDS011;21867;52.012;4.324;2023-07-02T11:59:17;6.37;;;4.50;;
35743;SDS011;21867;52.012;4.324;2023-07-02T12:01:44;16.43;;;5.50;;
35743;SDS011;21867;52.012;4.324;2023-07-02T12:04:11;10.57;;;5.50;;
35743;SDS011;21867;52.012;4.324;2023-07-02T12:06:39;8.13;;;5.03;;
35743;SDS011;21867;52.012;4.324;2023-07-02T12:09:45;6.80;;;3.87;;
35743;SDS011;21867;52.012;4.324;2023-07-02T12:12:12;9.03;;;4.60;;
35743;SDS011;21867;52.012;4.324;2023-07-02T12:14:40;7.90;;;4.17;;
35743;SDS011;21867;52.012;4.324;2023-07-02T12:17:08;12.03;;;5.17;;
35743;SDS011;21867;52.012;4.324;2023-07-02T12:19:35;11.23;;;5.00;;
35743;SDS011;21867;52.012;4.324;2023-07-02T12:22:04;10.20;;;5.47;;
35743;SDS011;21867;52.012;4.324;2023-07-02T12:24:31;8.43;;;4.80;;
35743;SDS011;21867;52.012;4.324;2023-07-02T12:27:00;9.13;;;6.10;;
35743;SDS011;21867;52.012;4.324;2023-07-02T12:29:27;9.90;;;5.37;;
35743;SDS011;21867;52.012;4.324;2023-07-02T12:31:55;6.70;;;4.37;;
35743;SDS011;21867;52.012;4.324;2023-07-02T12:34:22;7.93;;;5.00;;
35743;SDS011;21867;52.012;4.324;2023-07-02T12:39:25;14.20;;;6.00;;
35743;SDS011;21867;52.012;4.324;2023-07-02T12:41:53;7.30;;;4.67;;
35743;SDS011;21867;52.012;4.324;2023-07-02T12:44:21;10.30;;;5.03;;
35743;SDS011;21867;52.012;4.324;2023-07-02T12:46:49;12.03;;;5.43;;
35743;SDS011;21867;52.012;4.324;2023-07-02T12:49:16;11.20;;;5.63;;
35743;SDS011;21867;52.012;4.324;2023-07-02T12:51:50;11.23;;;4.40;;
35743;SDS011;21867;52.012;4.324;2023-07-02T12:54:19;11.20;;;5.20;;
35743;SDS011;21867;52.012;4.324;2023-07-02T12:57:05;12.00;;;5.73;;
35743;SDS011;21867;52.012;4.324;2023-07-02T12:59:34;9.73;;;5.13;;
35743;SDS011;21867;52.012;4.324;2023-07-02T13:02:02;10.27;;;5.27;;
35743;SDS011;21867;52.012;4.324;2023-07-02T13:04:31;10.40;;;4.90;;
35743;SDS011;21867;52.012;4.324;2023-07-02T13:07:00;11.87;;;5.17;;
35743;SDS011;21867;52.012;4.324;2023-07-02T13:09:27;10.03;;;5.23;;
35743;SDS011;21867;52.012;4.324;2023-07-02T13:11:55;9.20;;;4.20;;
35743;SDS011;21867;52.012;4.324;2023-07-02T13:14:22;8.70;;;4.43;;
35743;SDS011;21867;52.012;4.324;2023-07-02T13:16:51;10.73;;;4.70;;
35743;SDS011;21867;52.012;4.324;2023-07-02T13:19:18;10.83;;;4.37;;
35743;SDS011;21867;52.012;4.324;2023-07-02T13:21:45;11.60;;;4.17;;
35743;SDS011;21867;52.012;4.324;2023-07-02T13:24:14;6.77;;;4.10;;
35743;SDS011;21867;52.012;4.324;2023-07-02T13:26:41;9.60;;;4.57;;
35743;SDS011;21867;52.012;4.324;2023-07-02T13:29:11;8.75;;;3.85;;
35743;SDS011;21867;52.012;4.324;2023-07-02T13:31:38;9.43;;;4.27;;
35743;SDS011;21867;52.012;4.324;2023-07-02T13:34:07;7.63;;;4.80;;
35743;SDS011;21867;52.012;4.324;2023-07-02T13:36:40;8.57;;;4.47;;
35743;SDS011;21867;52.012;4.324;2023-07-02T13:39:08;7.53;;;4.70;;
35743;SDS011;21867;52.012;4.324;2023-07-02T13:41:35;7.60;;;3.90;;
35743;SDS011;21867;52.012;4.324;2023-07-02T13:44:03;8.10;;;4.07;;
35743;SDS011;21867;52.012;4.324;2023-07-02T13:46:30;9.00;;;4.53;;
35743;SDS011;21867;52.012;4.324;2023-07-02T13:49:08;13.53;;;4.40;;
35743;SDS011;21867;52.012;4.324;2023-07-02T13:51:46;7.63;;;4.53;;
35743;SDS011;21867;52.012;4.324;2023-07-02T13:54:13;7.13;;;3.67;;
35743;SDS011;21867;52.012;4.324;2023-07-02T13:56:41;7.63;;;3.83;;
35743;SDS011;21867;52.012;4.324;2023-07-02T13:59:10;8.10;;;4.27;;
35743;SDS011;21867;52.012;4.324;2023-07-02T14:01:37;5.93;;;4.20;;
35743;SDS011;21867;52.012;4.324;2023-07-02T14:04:05;7.33;;;4.27;;
35743;SDS011;21867;52.012;4.324;2023-07-02T14:06:32;7.63;;;4.27;;
35743;SDS011;21867;52.012;4.324;2023-07-02T14:09:00;9.53;;;4.50;;
35743;SDS011;21867;52.012;4.324;2023-07-02T14:11:27;5.67;;;3.43;;
35743;SDS011;21867;52.012;4.324;2023-07-02T14:13:55;8.20;;;4.33;;
35743;SDS011;21867;52.012;4.324;2023-07-02T14:16:24;8.07;;;3.80;;
35743;SDS011;21867;52.012;4.324;2023-07-02T14:18:51;8.37;;;4.67;;
35743;SDS011;21867;52.012;4.324;2023-07-02T14:21:19;6.30;;;4.20;;
35743;SDS011;21867;52.012;4.324;2023-07-02T14:23:46;8.67;;;4.47;;
35743;SDS011;21867;52.012;4.324;2023-07-02T14:26:14;8.50;;;4.27;;
35743;SDS011;21867;52.012;4.324;2023-07-02T14:28:41;6.53;;;4.00;;
35743;SDS011;21867;52.012;4.324;2023-07-02T14:31:08;11.83;;;5.10;;
35743;SDS011;21867;52.012;4.324;2023-07-02T14:33:37;9.23;;;4.73;;
35743;SDS011;21867;52.012;4.324;2023-07-02T14:36:05;8.20;;;4.83;;
35743;SDS011;21867;52.012;4.324;2023-07-02T14:38:32;15.43;;;5.00;;
35743;SDS011;21867;52.012;4.324;2023-07-02T14:41:00;7.90;;;4.30;;
35743;SDS011;21867;52.012;4.324;2023-07-02T14:43:28;8.73;;;5.00;;
35743;SDS011;21867;52.012;4.324;2023-07-02T14:45:57;9.47;;;4.33;;
35743;SDS011;21867;52.012;4.324;2023-07-02T14:48:26;7.93;;;4.63;;
35743;SDS011;21867;52.012;4.324;2023-07-02T14:50:58;11.97;;;5.10;;
35743;SDS011;21867;52.012;4.324;2023-07-02T14:53:26;10.47;;;4.50;;
35743;SDS011;21867;52.012;4.324;2023-07-02T14:55:54;6.73;;;4.37;;
35743;SDS011;21867;52.012;4.324;2023-07-02T14:58:22;9.43;;;4.47;;
35743;SDS011;21867;52.012;4.324;2023-07-02T15:00:51;9.57;;;5.13;;
35743;SDS011;21867;52.012;4.324;2023-07-02T15:03:18;8.23;;;4.77;;
35743;SDS011;21867;52.012;4.324;2023-07-02T15:05:46;10.57;;;5.03;;
35743;SDS011;21867;52.012;4.324;2023-07-02T15:08:16;9.30;;;4.43;;
35743;SDS011;21867;52.012;4.324;2023-07-02T15:10:45;8.23;;;4.60;;
35743;SDS011;21867;52.012;4.324;2023-07-02T15:13:12;6.43;;;4.63;;